Time;durP1;ratioP1;P1;durP2;ratioP2;P2;SDS_P1;SDS_P2;PMS_P1;PMS_P2;Temp;Humidity;BMP_temperature;BMP_pressure;BME280_temperature;BME280_humidity;BME280_pressure;Samples;Min_cycle;Max_cycle;Signal;HPM_P1;HPM_P2
2023/08/06 00:01:06;;;;;;;10.97;3.00;;;;;;;;;;5137728;27;20252;-87
2023/08/06 00:03:34;;;;;;;13.53;3.23;;;;;;;;;;5138019;27;20229;-87
2023/08/06 00:06:01;;;;;;;14.43;3.20;;;;;;;;;;5138094;27;20275;-88
2023/08/06 00:08:28;;;;;;;8.07;2.63;;;;;;;;;;5138192;27;20193;-88
2023/08/06 00:10:55;;;;;;;14.17;2.87;;;;;;;;;;5138099;27;20220;-87
2023/08/06 00:13:22;;;;;;;9.90;3.20;;;;;;;;;;5138253;27;20211;-88
2023/08/06 00:15:51;;;;;;;13.27;3.53;;;;;;;;;;5138068;27;20225;-88
2023/08/06 00:18:18;;;;;;;10.27;2.80;;;;;;;;;;5137823;27;20228;-88
2023/08/06 00:20:46;;;;;;;16.03;3.13;;;;;;;;;;5137725;27;20221;-87
2023/08/06 00:23:13;;;;;;;12.77;2.83;;;;;;;;;;5137631;27;20193;-87
2023/08/06 00:25:40;;;;;;;7.93;2.60;;;;;;;;;;5138098;27;20634;-88
2023/08/06 00:28:07;;;;;;;13.70;3.07;;;;;;;;;;5137568;27;20312;-88
2023/08/06 00:30:34;;;;;;;9.00;2.63;;;;;;;;;;5137390;27;20284;-87
2023/08/06 00:33:03;;;;;;;8.20;3.13;;;;;;;;;;5137662;27;20276;-87
2023/08/06 00:35:31;;;;;;;11.27;2.97;;;;;;;;;;5136397;27;20201;-88
2023/08/06 00:37:58;;;;;;;10.83;3.03;;;;;;;;;;5137494;27;20201;-88
2023/08/06 00:40:28;;;;;;;13.43;3.00;;;;;;;;;;5137608;27;20213;-87
2023/08/06 00:42:55;;;;;;;8.07;2.63;;;;;;;;;;5137333;27;20231;-88
2023/08/06 00:45:23;;;;;;;11.97;2.60;;;;;;;;;;5137484;27;20246;-87
2023/08/06 00:47:50;;;;;;;11.50;3.13;;;;;;;;;;5137309;27;20232;-87
2023/08/06 00:50:21;;;;;;;9.03;2.67;;;;;;;;;;5137325;27;20217;-88
2023/08/06 00:52:48;;;;;;;7.77;2.20;;;;;;;;;;5136762;27;20232;-88
2023/08/06 00:55:15;;;;;;;9.00;2.70;;;;;;;;;;5137511;27;20281;-89
2023/08/06 00:57:42;;;;;;;9.73;2.83;;;;;;;;;;5137082;27;20229;-89
2023/08/06 01:00:10;;;;;;;7.97;2.30;;;;;;;;;;5136879;27;20813;-89
2023/08/06 01:02:38;;;;;;;14.03;3.00;;;;;;;;;;5136866;27;20663;-88
2023/08/06 01:05:05;;;;;;;9.63;2.70;;;;;;;;;;5137460;27;20276;-88
2023/08/06 01:07:39;;;;;;;8.83;2.70;;;;;;;;;;5136963;27;20252;-88
2023/08/06 01:10:16;;;;;;;8.00;2.70;;;;;;;;;;5137337;27;20292;-88
2023/08/06 01:12:47;;;;;;;9.23;2.40;;;;;;;;;;5136632;27;20285;-87
2023/08/06 01:15:16;;;;;;;8.83;2.80;;;;;;;;;;5137522;27;20251;-89
2023/08/06 01:17:44;;;;;;;7.73;2.23;;;;;;;;;;5136711;27;20209;-88
2023/08/06 01:20:11;;;;;;;8.37;2.63;;;;;;;;;;5136747;27;20232;-87
2023/08/06 01:22:40;;;;;;;9.87;2.83;;;;;;;;;;5136165;27;20280;-88
2023/08/06 01:25:08;;;;;;;9.70;2.37;;;;;;;;;;5136587;27;20275;-88
2023/08/06 01:27:40;;;;;;;9.70;2.73;;;;;;;;;;5136576;27;20229;-88
2023/08/06 01:30:09;;;;;;;10.83;2.57;;;;;;;;;;5136406;27;20224;-87
2023/08/06 01:32:37;;;;;;;12.90;2.70;;;;;;;;;;5136588;27;20288;-88
2023/08/06 01:35:05;;;;;;;8.53;2.60;;;;;;;;;;5136116;27;20280;-88
2023/08/06 01:37:32;;;;;;;9.10;2.77;;;;;;;;;;5136081;27;20201;-88
2023/08/06 01:40:02;;;;;;;11.63;2.80;;;;;;;;;;5136533;27;20189;-89
2023/08/06 01:42:29;;;;;;;7.87;2.47;;;;;;;;;;5136022;27;20291;-88
2023/08/06 01:44:56;;;;;;;11.53;2.50;;;;;;;;;;5136051;27;20296;-88
2023/08/06 01:47:23;;;;;;;9.97;2.70;;;;;;;;;;5136225;27;20239;-87
2023/08/06 01:49:51;;;;;;;9.97;2.67;;;;;;;;;;5135935;27;20229;-88
2023/08/06 01:52:18;;;;;;;9.50;2.60;;;;;;;;;;5135467;27;20235;-88
2023/08/06 01:54:45;;;;;;;10.33;2.47;;;;;;;;;;5135941;27;20650;-86
2023/08/06 01:57:13;;;;;;;8.03;2.37;;;;;;;;;;5136204;27;20322;-89
2023/08/06 01:59:41;;;;;;;9.47;2.70;;;;;;;;;;5135674;27;20228;-87
2023/08/06 02:02:08;;;;;;;10.13;2.80;;;;;;;;;;5135841;27;20201;-88
2023/08/06 02:04:35;;;;;;;10.33;2.80;;;;;;;;;;5135717;27;20564;-87
2023/08/06 02:07:03;;;;;;;8.77;2.43;;;;;;;;;;5134861;27;20227;-88
2023/08/06 02:09:30;;;;;;;10.50;2.57;;;;;;;;;;5135552;27;20742;-88
2023/08/06 02:11:57;;;;;;;13.07;2.63;;;;;;;;;;5135275;27;20294;-87
2023/08/06 02:14:26;;;;;;;9.73;2.57;;;;;;;;;;5135493;27;20639;-88
2023/08/06 02:16:53;;;;;;;9.90;2.70;;;;;;;;;;5135656;27;20279;-87
2023/08/06 02:19:20;;;;;;;17.77;3.17;;;;;;;;;;5135194;27;20217;-88
2023/08/06 02:21:47;;;;;;;9.83;2.50;;;;;;;;;;5135796;27;20366;-87
2023/08/06 02:24:14;;;;;;;12.60;2.87;;;;;;;;;;5135535;27;20280;-87
2023/08/06 02:26:41;;;;;;;12.70;2.97;;;;;;;;;;5135459;27;20725;-87
2023/08/06 02:29:09;;;;;;;9.87;2.67;;;;;;;;;;5135260;27;20248;-86
2023/08/06 02:31:37;;;;;;;11.87;2.53;;;;;;;;;;5134849;27;20284;-87
2023/08/06 02:34:04;;;;;;;8.30;2.50;;;;;;;;;;5135089;27;20203;-87
2023/08/06 02:36:32;;;;;;;13.10;2.87;;;;;;;;;;5134965;27;20212;-87
2023/08/06 02:38:59;;;;;;;11.93;2.63;;;;;;;;;;5134644;27;20983;-86
2023/08/06 02:41:26;;;;;;;12.83;2.70;;;;;;;;;;5130944;27;20275;-87
2023/08/06 02:43:54;;;;;;;8.30;2.30;;;;;;;;;;5125498;27;20226;-87
2023/08/06 02:46:21;;;;;;;9.23;2.73;;;;;;;;;;5114255;28;20289;-86
2023/08/06 02:48:50;;;;;;;8.07;2.43;;;;;;;;;;5113807;28;20243;-87
2023/08/06 02:51:17;;;;;;;8.63;2.50;;;;;;;;;;5114175;28;20212;-87
2023/08/06 02:53:44;;;;;;;9.10;2.50;;;;;;;;;;5113862;28;20236;-87
2023/08/06 02:56:12;;;;;;;12.10;2.33;;;;;;;;;;5114691;28;20202;-87
2023/08/06 02:58:39;;;;;;;10.77;2.50;;;;;;;;;;5114062;28;20229;-87
2023/08/06 03:01:07;;;;;;;10.60;2.43;;;;;;;;;;5113508;28;20308;-87
2023/08/06 03:03:35;;;;;;;9.37;2.70;;;;;;;;;;5114029;28;20239;-87
2023/08/06 03:06:03;;;;;;;8.87;2.50;;;;;;;;;;5113920;28;20200;-87
2023/08/06 03:08:31;;;;;;;13.47;2.50;;;;;;;;;;5113311;28;20720;-87
2023/08/06 03:10:58;;;;;;;10.27;2.20;;;;;;;;;;5113737;28;20216;-86
2023/08/06 03:13:25;;;;;;;8.47;2.37;;;;;;;;;;5113757;28;20293;-87
2023/08/06 03:15:56;;;;;;;11.37;2.47;;;;;;;;;;5113804;28;20214;-87
2023/08/06 03:18:23;;;;;;;11.13;2.33;;;;;;;;;;5112431;28;20269;-87
2023/08/06 03:20:50;;;;;;;9.27;2.30;;;;;;;;;;5113841;28;20614;-88
2023/08/06 03:23:19;;;;;;;11.77;2.43;;;;;;;;;;5113720;28;20232;-86
2023/08/06 03:25:46;;;;;;;11.80;2.37;;;;;;;;;;5113661;28;20181;-86
2023/08/06 03:28:14;;;;;;;11.97;2.47;;;;;;;;;;5113770;28;20679;-87
2023/08/06 03:30:41;;;;;;;10.90;2.40;;;;;;;;;;5113635;28;20259;-87
2023/08/06 03:33:08;;;;;;;15.20;2.67;;;;;;;;;;5113700;28;20576;-87
2023/08/06 03:35:35;;;;;;;12.77;2.80;;;;;;;;;;5113284;28;20832;-86
2023/08/06 03:38:02;;;;;;;12.97;2.83;;;;;;;;;;5113742;28;20306;-87
2023/08/06 03:40:31;;;;;;;12.83;2.20;;;;;;;;;;5113628;28;20297;-87
2023/08/06 03:42:58;;;;;;;9.93;2.30;;;;;;;;;;5113355;28;20282;-86
2023/08/06 03:45:26;;;;;;;8.30;2.00;;;;;;;;;;5113431;28;20285;-87
2023/08/06 03:47:53;;;;;;;9.67;2.13;;;;;;;;;;5112976;28;20249;-86
2023/08/06 03:50:20;;;;;;;9.67;1.90;;;;;;;;;;5113639;28;20322;-87
2023/08/06 03:52:47;;;;;;;7.17;2.20;;;;;;;;;;5113323;28;20255;-87
2023/08/06 03:55:15;;;;;;;8.37;2.40;;;;;;;;;;5113331;28;20232;-88
2023/08/06 03:57:43;;;;;;;8.77;2.30;;;;;;;;;;5113326;28;20255;-88
2023/08/06 04:00:11;;;;;;;8.87;2.23;;;;;;;;;;5112986;28;20249;-87
2023/08/06 04:02:38;;;;;;;8.43;2.20;;;;;;;;;;5113044;28;20193;-87
2023/08/06 04:05:06;;;;;;;9.17;2.17;;;;;;;;;;5113550;28;20269;-87
2023/08/06 04:07:33;;;;;;;15.47;2.87;;;;;;;;;;5112928;28;20217;-87
2023/08/06 04:10:01;;;;;;;12.20;2.20;;;;;;;;;;5113001;28;20277;-88
2023/08/06 04:12:29;;;;;;;10.73;1.93;;;;;;;;;;5111830;28;20200;-86
2023/08/06 04:14:59;;;;;;;10.33;2.17;;;;;;;;;;5113152;28;20233;-87
2023/08/06 04:17:26;;;;;;;12.77;2.07;;;;;;;;;;5127844;28;20228;-87
2023/08/06 04:19:55;;;;;;;13.20;2.27;;;;;;;;;;5133607;27;20292;-87
2023/08/06 04:22:22;;;;;;;9.43;2.17;;;;;;;;;;5133706;27;20217;-87
2023/08/06 04:24:49;;;;;;;9.87;2.03;;;;;;;;;;5133593;27;20194;-86
2023/08/06 04:27:17;;;;;;;13.37;2.00;;;;;;;;;;5133780;27;20650;-86
2023/08/06 04:29:44;;;;;;;12.63;2.80;;;;;;;;;;5135995;27;20224;-86
2023/08/06 04:32:14;;;;;;;10.37;2.27;;;;;;;;;;5136968;27;20292;-87
2023/08/06 04:34:41;;;;;;;14.43;2.30;;;;;;;;;;5137537;27;20203;-87
2023/08/06 04:37:08;;;;;;;12.60;2.53;;;;;;;;;;5137239;27;20624;-87
2023/08/06 04:39:37;;;;;;;10.93;2.10;;;;;;;;;;5136165;27;20672;-87
2023/08/06 04:42:05;;;;;;;10.53;2.20;;;;;;;;;;5137267;27;20224;-87
2023/08/06 04:44:32;;;;;;;13.00;2.27;;;;;;;;;;5136682;27;20650;-87
2023/08/06 04:46:59;;;;;;;11.50;2.10;;;;;;;;;;5137063;27;20253;-86
2023/08/06 04:49:28;;;;;;;8.53;2.10;;;;;;;;;;5137133;27;20643;-87
2023/08/06 04:51:55;;;;;;;13.47;2.40;;;;;;;;;;5136883;27;20220;-87
2023/08/06 04:54:22;;;;;;;10.47;2.07;;;;;;;;;;5136676;27;20288;-87
2023/08/06 04:56:50;;;;;;;10.97;2.20;;;;;;;;;;5136557;27;20193;-86
2023/08/06 04:59:17;;;;;;;9.93;2.40;;;;;;;;;;5136795;27;20284;-86
2023/08/06 05:01:45;;;;;;;11.30;2.20;;;;;;;;;;5136383;27;20239;-87
2023/08/06 05:04:12;;;;;;;12.37;2.50;;;;;;;;;;5136481;27;20288;-87
2023/08/06 05:06:41;;;;;;;10.37;2.60;;;;;;;;;;5136506;27;20280;-87
2023/08/06 05:09:08;;;;;;;9.53;2.27;;;;;;;;;;5136706;27;20235;-87
2023/08/06 05:11:36;;;;;;;13.33;1.93;;;;;;;;;;5136970;27;20537;-87
2023/08/06 05:14:03;;;;;;;9.57;2.13;;;;;;;;;;5136572;27;20627;-88
2023/08/06 05:16:30;;;;;;;8.97;1.83;;;;;;;;;;5136619;27;20300;-88
2023/08/06 05:18:57;;;;;;;14.20;2.73;;;;;;;;;;5136167;27;20236;-86
2023/08/06 05:21:24;;;;;;;11.97;2.33;;;;;;;;;;5136056;27;20201;-86
2023/08/06 05:23:53;;;;;;;10.53;1.90;;;;;;;;;;5136522;27;20252;-87
2023/08/06 05:26:20;;;;;;;12.20;2.23;;;;;;;;;;5136352;27;20232;-87
2023/08/06 05:28:48;;;;;;;9.50;2.07;;;;;;;;;;5135616;27;20722;-87
2023/08/06 05:31:15;;;;;;;9.03;2.00;;;;;;;;;;5136461;27;20224;-87
2023/08/06 05:33:42;;;;;;;10.07;2.07;;;;;;;;;;5135868;27;20208;-85
2023/08/06 05:36:10;;;;;;;10.27;2.27;;;;;;;;;;5136125;27;20232;-87
2023/08/06 05:38:37;;;;;;;8.70;1.80;;;;;;;;;;5136050;27;20238;-87
2023/08/06 05:41:05;;;;;;;11.47;2.53;;;;;;;;;;5135002;27;20732;-87
2023/08/06 05:43:33;;;;;;;8.03;2.37;;;;;;;;;;5135868;27;20217;-88
2023/08/06 05:46:00;;;;;;;7.30;2.13;;;;;;;;;;5135381;27;20229;-86
2023/08/06 05:48:27;;;;;;;11.30;2.00;;;;;;;;;;5135703;27;20323;-87
2023/08/06 05:50:55;;;;;;;11.27;2.13;;;;;;;;;;5135795;27;20597;-87
2023/08/06 05:53:22;;;;;;;13.43;2.30;;;;;;;;;;5135771;27;20221;-87
2023/08/06 05:55:49;;;;;;;9.47;2.00;;;;;;;;;;5135899;27;20220;-87
2023/08/06 05:58:19;;;;;;;7.00;1.83;;;;;;;;;;5135012;27;20691;-87
2023/08/06 06:00:47;;;;;;;11.13;2.20;;;;;;;;;;5135193;27;20769;-88
2023/08/06 06:03:14;;;;;;;11.70;2.20;;;;;;;;;;5135227;27;20669;-87
2023/08/06 06:05:41;;;;;;;10.23;1.97;;;;;;;;;;5135363;27;20695;-87
2023/08/06 06:08:08;;;;;;;10.00;1.90;;;;;;;;;;5134169;27;20213;-88
2023/08/06 06:10:36;;;;;;;10.93;2.13;;;;;;;;;;5135384;27;20196;-87
2023/08/06 06:13:04;;;;;;;13.60;2.10;;;;;;;;;;5134782;27;20197;-87
2023/08/06 06:15:32;;;;;;;9.40;2.00;;;;;;;;;;5135320;27;20722;-86
2023/08/06 06:17:59;;;;;;;7.17;2.00;;;;;;;;;;5115097;27;20662;-87
2023/08/06 06:20:27;;;;;;;10.20;2.17;;;;;;;;;;5114706;28;20741;-88
2023/08/06 06:22:54;;;;;;;7.20;2.00;;;;;;;;;;5115009;28;20213;-88
2023/08/06 06:25:21;;;;;;;9.02;1.90;;;;;;;;;;5114651;28;20280;-88
2023/08/06 06:27:48;;;;;;;7.45;1.75;;;;;;;;;;5114383;28;20225;-88
2023/08/06 06:30:16;;;;;;;9.63;1.83;;;;;;;;;;5114638;28;20316;-88
2023/08/06 06:32:45;;;;;;;8.75;1.90;;;;;;;;;;5114575;28;20299;-87
2023/08/06 06:35:12;;;;;;;7.82;1.70;;;;;;;;;;5114805;28;20635;-88
2023/08/06 06:37:39;;;;;;;7.10;1.90;;;;;;;;;;5114244;28;20224;-88
2023/08/06 06:40:07;;;;;;;5.05;1.83;;;;;;;;;;5114636;28;20224;-87
2023/08/06 06:42:34;;;;;;;10.50;2.03;;;;;;;;;;5114654;28;20221;-89
2023/08/06 06:45:01;;;;;;;6.15;1.70;;;;;;;;;;5114384;28;20225;-89
2023/08/06 06:47:28;;;;;;;9.15;1.90;;;;;;;;;;5114423;28;20217;-88
2023/08/06 06:49:57;;;;;;;7.07;1.70;;;;;;;;;;5114359;28;20245;-88
2023/08/06 06:52:24;;;;;;;10.48;2.50;;;;;;;;;;5114350;28;20288;-88
2023/08/06 06:54:52;;;;;;;8.85;2.20;;;;;;;;;;5114446;28;20228;-89
2023/08/06 06:57:19;;;;;;;7.45;2.17;;;;;;;;;;5113985;28;20225;-89
2023/08/06 06:59:46;;;;;;;6.72;1.67;;;;;;;;;;5114394;28;20265;-89
2023/08/06 07:02:13;;;;;;;9.35;2.10;;;;;;;;;;5113965;28;20272;-89
2023/08/06 07:04:41;;;;;;;11.15;2.00;;;;;;;;;;5114009;28;20228;-89
2023/08/06 07:07:10;;;;;;;8.57;1.83;;;;;;;;;;5114449;28;20280;-89
2023/08/06 07:09:37;;;;;;;7.72;1.77;;;;;;;;;;5113528;28;20274;-89
2023/08/06 07:12:05;;;;;;;10.68;1.85;;;;;;;;;;5114262;28;20640;-89
2023/08/06 07:14:32;;;;;;;9.93;1.95;;;;;;;;;;5114035;28;20284;-90
2023/08/06 07:16:59;;;;;;;6.82;2.17;;;;;;;;;;5125245;27;20297;-90
2023/08/06 07:19:27;;;;;;;7.13;2.05;;;;;;;;;;5134816;27;20273;-90
2023/08/06 07:21:55;;;;;;;5.30;1.55;;;;;;;;;;5134873;27;20245;-88
2023/08/06 07:24:24;;;;;;;5.63;1.75;;;;;;;;;;5134916;27;20298;-90
2023/08/06 07:26:52;;;;;;;6.00;1.88;;;;;;;;;;5134498;27;20189;-91
2023/08/06 07:29:21;;;;;;;8.45;1.90;;;;;;;;;;5133467;27;20242;-91
2023/08/06 07:31:50;;;;;;;8.18;2.05;;;;;;;;;;5134380;27;20276;-90
2023/08/06 07:34:17;;;;;;;9.52;1.85;;;;;;;;;;5134972;27;20204;-90
2023/08/06 07:36:45;;;;;;;8.80;1.73;;;;;;;;;;5134499;27;20197;-91
2023/08/06 07:39:12;;;;;;;5.55;1.58;;;;;;;;;;5134016;28;20192;-91
2023/08/06 07:41:41;;;;;;;6.35;1.80;;;;;;;;;;5134498;27;20632;-90
2023/08/06 07:44:08;;;;;;;6.68;1.63;;;;;;;;;;5134511;28;20272;-91
2023/08/06 07:46:35;;;;;;;5.95;1.73;;;;;;;;;;5135004;28;20291;-91
2023/08/06 07:49:03;;;;;;;6.20;1.70;;;;;;;;;;5134599;28;20244;-92
2023/08/06 07:51:30;;;;;;;5.63;1.85;;;;;;;;;;5134487;28;20224;-91
2023/08/06 07:53:57;;;;;;;5.32;1.70;;;;;;;;;;5133828;27;20624;-91
2023/08/06 07:56:25;;;;;;;8.63;1.98;;;;;;;;;;5134526;28;20284;-92
2023/08/06 07:58:53;;;;;;;5.82;1.63;;;;;;;;;;5134341;28;20225;-92
2023/08/06 08:01:21;;;;;;;6.32;1.55;;;;;;;;;;5134230;28;20256;-92
2023/08/06 08:03:48;;;;;;;5.13;1.42;;;;;;;;;;5135761;27;20224;-91
2023/08/06 08:06:15;;;;;;;5.65;1.60;;;;;;;;;;5138491;27;20194;-92
2023/08/06 08:08:42;;;;;;;8.07;1.75;;;;;;;;;;5138499;27;20264;-92
2023/08/06 08:11:09;;;;;;;6.07;1.80;;;;;;;;;;5138352;27;20221;-92
2023/08/06 08:13:37;;;;;;;5.82;1.58;;;;;;;;;;5138493;27;20703;-93
2023/08/06 08:16:06;;;;;;;3.20;1.38;;;;;;;;;;5135018;27;20237;-91
2023/08/06 08:18:34;;;;;;;5.20;1.48;;;;;;;;;;5117668;28;20217;-92
2023/08/06 08:21:01;;;;;;;5.68;2.03;;;;;;;;;;5117766;28;20240;-92
2023/08/06 08:23:28;;;;;;;5.47;1.60;;;;;;;;;;5117584;28;20228;-92
2023/08/06 08:25:55;;;;;;;6.13;1.58;;;;;;;;;;5117644;28;20221;-92
2023/08/06 08:28:23;;;;;;;4.13;1.63;;;;;;;;;;5117088;28;20204;-92
2023/08/06 08:30:50;;;;;;;5.82;1.30;;;;;;;;;;5117639;28;20320;-92
2023/08/06 08:33:19;;;;;;;5.47;1.42;;;;;;;;;;5117744;28;20230;-92
2023/08/06 08:35:47;;;;;;;3.80;1.10;;;;;;;;;;5117862;28;20201;-92
2023/08/06 08:38:15;;;;;;;3.28;1.13;;;;;;;;;;5117378;28;20572;-92
2023/08/06 08:40:44;;;;;;;5.45;1.33;;;;;;;;;;5117665;28;20635;-91
2023/08/06 08:43:13;;;;;;;5.85;1.40;;;;;;;;;;5117753;28;20198;-91
2023/08/06 08:45:41;;;;;;;4.88;1.27;;;;;;;;;;5117126;28;20194;-92
2023/08/06 08:48:08;;;;;;;4.57;1.17;;;;;;;;;;5117544;28;20277;-92
2023/08/06 08:50:37;;;;;;;7.10;1.60;;;;;;;;;;5117138;28;20231;-92
2023/08/06 08:53:04;;;;;;;5.47;1.20;;;;;;;;;;5117329;28;20326;-93
2023/08/06 08:55:32;;;;;;;3.00;0.80;;;;;;;;;;5117091;28;20714;-93
2023/08/06 08:58:00;;;;;;;2.97;1.02;;;;;;;;;;5117508;28;20204;-93
2023/08/06 09:00:27;;;;;;;2.28;0.77;;;;;;;;;;5116527;28;20313;-92
2023/08/06 09:02:55;;;;;;;4.60;1.10;;;;;;;;;;5117192;28;20265;-93
2023/08/06 09:05:23;;;;;;;4.35;1.23;;;;;;;;;;5116896;28;20225;-92
2023/08/06 09:07:54;;;;;;;4.95;1.35;;;;;;;;;;5118346;28;20281;-91
2023/08/06 09:10:23;;;;;;;4.88;1.10;;;;;;;;;;5119040;28;20320;-92
2023/08/06 09:12:52;;;;;;;4.95;1.33;;;;;;;;;;5117941;28;20190;-91
2023/08/06 09:15:20;;;;;;;8.02;1.67;;;;;;;;;;5115523;28;20250;-92
2023/08/06 09:17:47;;;;;;;5.25;1.50;;;;;;;;;;5134997;27;20288;-92
2023/08/06 09:20:15;;;;;;;5.13;1.58;;;;;;;;;;5137904;27;20704;-92
2023/08/06 09:22:44;;;;;;;4.75;1.55;;;;;;;;;;5138314;27;20189;-92
2023/08/06 09:25:13;;;;;;;3.70;1.23;;;;;;;;;;5142259;27;20581;-93
2023/08/06 09:27:41;;;;;;;5.00;1.20;;;;;;;;;;5143739;27;20209;-92
2023/08/06 09:30:09;;;;;;;3.38;1.30;;;;;;;;;;5143476;27;20311;-91
2023/08/06 09:32:51;;;;;;;3.70;1.10;;;;;;;;;;5143219;27;20688;-93
2023/08/06 09:35:18;;;;;;;4.57;1.27;;;;;;;;;;5139635;27;20186;-93
2023/08/06 09:37:45;;;;;;;4.97;1.20;;;;;;;;;;5138071;27;20229;-92
2023/08/06 09:40:31;;;;;;;3.15;1.10;;;;;;;;;;5137588;27;20276;-92
2023/08/06 09:42:58;;;;;;;4.22;1.02;;;;;;;;;;5136945;27;20237;-91
2023/08/06 09:45:29;;;;;;;3.80;1.25;;;;;;;;;;5138338;27;20264;-91
2023/08/06 09:47:57;;;;;;;3.67;1.20;;;;;;;;;;5139131;27;20205;-92
2023/08/06 09:50:30;;;;;;;4.88;1.35;;;;;;;;;;5139471;27;20315;-91
2023/08/06 09:52:57;;;;;;;4.95;1.40;;;;;;;;;;5139648;27;20196;-92
2023/08/06 09:55:26;;;;;;;5.85;1.45;;;;;;;;;;5136787;27;20618;-92
2023/08/06 09:57:56;;;;;;;5.20;1.30;;;;;;;;;;5136387;27;20196;-93
2023/08/06 10:00:23;;;;;;;6.25;1.38;;;;;;;;;;5136345;27;20713;-93
2023/08/06 10:02:54;;;;;;;3.78;0.93;;;;;;;;;;5136742;27;20192;-93
2023/08/06 10:05:22;;;;;;;5.15;1.35;;;;;;;;;;5136381;27;20199;-93
2023/08/06 10:07:50;;;;;;;4.95;0.95;;;;;;;;;;5136279;27;20653;-93
2023/08/06 10:10:19;;;;;;;4.60;1.20;;;;;;;;;;5136192;27;20317;-93
2023/08/06 10:12:48;;;;;;;2.45;0.93;;;;;;;;;;5136350;27;20284;-93
2023/08/06 10:15:21;;;;;;;3.05;1.20;;;;;;;;;;5136344;27;20634;-93
2023/08/06 10:17:49;;;;;;;3.75;1.00;;;;;;;;;;5117553;27;20216;-92
2023/08/06 10:20:16;;;;;;;3.60;1.38;;;;;;;;;;5116180;28;20233;-92
2023/08/06 10:22:45;;;;;;;2.60;0.90;;;;;;;;;;5115707;28;20602;-93
2023/08/06 10:25:12;;;;;;;3.75;0.90;;;;;;;;;;5115368;28;20281;-93
2023/08/06 10:27:41;;;;;;;2.20;0.70;;;;;;;;;;5115218;28;20232;-94
2023/08/06 10:30:42;;;;;;;2.65;0.82;;;;;;;;;;5115255;28;20301;-92
2023/08/06 10:33:10;;;;;;;3.63;0.90;;;;;;;;;;5115006;28;20201;-92
2023/08/06 10:35:37;;;;;;;2.20;0.80;;;;;;;;;;5114040;28;20229;-92
2023/08/06 10:38:05;;;;;;;2.60;0.80;;;;;;;;;;5115283;28;20651;-92
2023/08/06 10:40:33;;;;;;;2.88;0.90;;;;;;;;;;5115412;28;20772;-93
2023/08/06 10:43:01;;;;;;;3.50;0.80;;;;;;;;;;5115019;28;20247;-94
2023/08/06 10:45:30;;;;;;;0.88;0.50;;;;;;;;;;5115131;28;20190;-93
2023/08/06 10:47:58;;;;;;;7.10;1.00;;;;;;;;;;5114662;28;20205;-93
2023/08/06 10:50:26;;;;;;;3.28;0.90;;;;;;;;;;5114882;28;20456;-92
2023/08/06 10:52:53;;;;;;;1.58;0.60;;;;;;;;;;5115259;28;20189;-93
2023/08/06 10:55:27;;;;;;;2.25;0.73;;;;;;;;;;5114498;28;20277;-92
2023/08/06 10:57:55;;;;;;;2.00;0.50;;;;;;;;;;5114235;28;20277;-92
2023/08/06 11:00:23;;;;;;;1.65;1.00;;;;;;;;;;5114670;28;20324;-92
2023/08/06 11:02:53;;;;;;;1.25;0.60;;;;;;;;;;5114709;28;20189;-92
2023/08/06 11:05:22;;;;;;;2.80;0.75;;;;;;;;;;5114691;28;20208;-92
2023/08/06 11:07:51;;;;;;;1.50;0.50;;;;;;;;;;5114237;28;20221;-92
2023/08/06 11:10:18;;;;;;;2.10;0.75;;;;;;;;;;5114183;28;20233;-92
2023/08/06 11:12:46;;;;;;;2.03;0.70;;;;;;;;;;5114223;28;20194;-93
2023/08/06 11:15:13;;;;;;;2.78;0.70;;;;;;;;;;5114701;28;20214;-93
2023/08/06 11:17:42;;;;;;;2.35;0.80;;;;;;;;;;5114381;28;20222;-93
2023/08/06 11:20:11;;;;;;;2.58;0.82;;;;;;;;;;5114637;28;20198;-92
2023/08/06 11:22:39;;;;;;;2.53;0.90;;;;;;;;;;5114871;28;20190;-93
2023/08/06 11:25:07;;;;;;;2.45;0.77;;;;;;;;;;5115023;28;20301;-93
2023/08/06 11:27:35;;;;;;;3.65;0.80;;;;;;;;;;5114658;28;20214;-93
2023/08/06 11:30:03;;;;;;;3.35;0.70;;;;;;;;;;5114538;28;20332;-94
2023/08/06 11:32:31;;;;;;;1.88;0.80;;;;;;;;;;5115327;28;20197;-93
2023/08/06 11:34:58;;;;;;;2.13;0.70;;;;;;;;;;5116931;28;20224;-93
2023/08/06 11:37:27;;;;;;;2.97;0.60;;;;;;;;;;5118300;28;20228;-93
2023/08/06 11:39:54;;;;;;;3.15;0.80;;;;;;;;;;5119215;28;20240;-93
2023/08/06 11:42:21;;;;;;;6.22;0.85;;;;;;;;;;5120622;28;20194;-93
2023/08/06 11:44:49;;;;;;;3.63;0.73;;;;;;;;;;5116035;28;20198;-93
2023/08/06 11:47:17;;;;;;;3.38;0.80;;;;;;;;;;5114173;28;20202;-92
2023/08/06 11:49:46;;;;;;;1.75;0.60;;;;;;;;;;5113976;28;20231;-93
2023/08/06 11:52:16;;;;;;;1.92;0.60;;;;;;;;;;5114093;28;20182;-92
2023/08/06 11:54:45;;;;;;;3.67;0.70;;;;;;;;;;5114279;28;20242;-91
2023/08/06 11:57:12;;;;;;;2.50;0.80;;;;;;;;;;5114159;28;20213;-92
2023/08/06 11:59:39;;;;;;;2.97;0.80;;;;;;;;;;5113232;28;20285;-93
2023/08/06 12:02:10;;;;;;;4.28;0.80;;;;;;;;;;5113716;28;20202;-92
2023/08/06 12:04:52;;;;;;;3.03;0.80;;;;;;;;;;5114222;28;20194;-92
2023/08/06 12:07:19;;;;;;;3.08;0.60;;;;;;;;;;5113970;28;20232;-92
2023/08/06 12:09:48;;;;;;;2.88;0.75;;;;;;;;;;5113906;28;20225;-92
2023/08/06 12:12:16;;;;;;;1.83;0.70;;;;;;;;;;5113973;28;20626;-91
2023/08/06 12:14:43;;;;;;;3.97;0.73;;;;;;;;;;5114081;28;20197;-93
2023/08/06 12:17:10;;;;;;;0.90;0.60;;;;;;;;;;5126525;28;20205;-94
2023/08/06 12:19:38;;;;;;;2.15;0.60;;;;;;;;;;5134481;28;20280;-93
2023/08/06 12:22:05;;;;;;;1.98;0.80;;;;;;;;;;5134566;27;20289;-93
2023/08/06 12:24:32;;;;;;;3.45;0.70;;;;;;;;;;5134585;28;20653;-93
2023/08/06 12:27:02;;;;;;;3.40;0.90;;;;;;;;;;5133793;27;20224;-93
2023/08/06 12:29:31;;;;;;;2.83;0.68;;;;;;;;;;5134050;27;20201;-93
2023/08/06 12:31:58;;;;;;;2.78;0.80;;;;;;;;;;5134447;28;20320;-93
2023/08/06 12:34:25;;;;;;;2.67;0.60;;;;;;;;;;5134039;27;20197;-93
2023/08/06 12:36:52;;;;;;;1.73;0.77;;;;;;;;;;5134653;28;20193;-93
2023/08/06 12:39:20;;;;;;;3.80;0.77;;;;;;;;;;5134219;28;20288;-93
2023/08/06 12:41:47;;;;;;;3.53;0.90;;;;;;;;;;5134222;28;20205;-92
2023/08/06 12:44:16;;;;;;;2.25;0.73;;;;;;;;;;5134268;28;20228;-93
2023/08/06 12:46:43;;;;;;;3.55;0.93;;;;;;;;;;5133987;28;20736;-92
2023/08/06 12:49:10;;;;;;;2.35;0.70;;;;;;;;;;5134497;27;20711;-93
2023/08/06 12:51:38;;;;;;;2.20;0.70;;;;;;;;;;5137811;27;20221;-92
2023/08/06 12:54:05;;;;;;;2.25;0.80;;;;;;;;;;5137747;27;20185;-92
2023/08/06 12:56:32;;;;;;;2.97;0.90;;;;;;;;;;5137615;27;20280;-93
2023/08/06 12:59:00;;;;;;;2.03;0.73;;;;;;;;;;5137453;27;20249;-93
2023/08/06 13:01:28;;;;;;;2.30;0.60;;;;;;;;;;5138224;27;20666;-93
2023/08/06 13:03:56;;;;;;;3.63;0.73;;;;;;;;;;5137589;27;20220;-93
2023/08/06 13:06:23;;;;;;;3.75;0.73;;;;;;;;;;5137292;27;20232;-93
2023/08/06 13:08:50;;;;;;;1.90;0.60;;;;;;;;;;5138482;27;20601;-93
2023/08/06 13:11:18;;;;;;;2.20;0.73;;;;;;;;;;5137835;27;20216;-93
2023/08/06 13:13:46;;;;;;;3.50;0.85;;;;;;;;;;5138125;27;20206;-92
2023/08/06 13:16:13;;;;;;;3.30;0.90;;;;;;;;;;5132677;27;20201;-93
2023/08/06 13:18:42;;;;;;;2.03;0.80;;;;;;;;;;5116679;28;20627;-93
2023/08/06 13:21:09;;;;;;;1.98;0.60;;;;;;;;;;5116741;28;20186;-93
2023/08/06 13:23:37;;;;;;;2.95;0.75;;;;;;;;;;5116997;28;20221;-93
2023/08/06 13:26:04;;;;;;;1.92;0.70;;;;;;;;;;5116882;28;20692;-93
2023/08/06 13:28:32;;;;;;;3.33;0.68;;;;;;;;;;5116499;28;20220;-94
2023/08/06 13:30:59;;;;;;;2.55;0.63;;;;;;;;;;5117100;28;20244;-94
2023/08/06 13:33:27;;;;;;;3.03;0.63;;;;;;;;;;5116082;28;20208;-93
2023/08/06 13:35:55;;;;;;;1.63;0.75;;;;;;;;;;5116964;28;20196;-93
2023/08/06 13:38:23;;;;;;;1.75;0.80;;;;;;;;;;5119790;28;20257;-93
2023/08/06 13:40:50;;;;;;;2.08;0.70;;;;;;;;;;5119724;28;20290;-93
2023/08/06 13:43:19;;;;;;;1.98;0.80;;;;;;;;;;5119706;28;20221;-93
2023/08/06 13:45:46;;;;;;;1.73;0.57;;;;;;;;;;5122448;28;20282;-93
2023/08/06 13:48:13;;;;;;;2.13;0.70;;;;;;;;;;5121409;28;20194;-93
2023/08/06 13:50:40;;;;;;;1.42;0.43;;;;;;;;;;5121675;28;20654;-94
2023/08/06 13:53:09;;;;;;;2.20;0.60;;;;;;;;;;5122537;28;20235;-93
2023/08/06 13:55:36;;;;;;;2.83;0.65;;;;;;;;;;5118874;28;20240;-93
2023/08/06 13:58:03;;;;;;;1.23;0.65;;;;;;;;;;5115887;28;20202;-93
2023/08/06 14:00:31;;;;;;;1.65;0.60;;;;;;;;;;5115604;28;20261;-93
2023/08/06 14:02:58;;;;;;;2.15;0.50;;;;;;;;;;5115798;28;20649;-93
2023/08/06 14:05:25;;;;;;;1.60;0.60;;;;;;;;;;5116186;28;20216;-92
2023/08/06 14:07:53;;;;;;;2.25;0.90;;;;;;;;;;5116316;28;20254;-94
2023/08/06 14:10:21;;;;;;;2.15;0.57;;;;;;;;;;5115502;28;20650;-93
2023/08/06 14:12:49;;;;;;;1.38;0.70;;;;;;;;;;5115652;28;20221;-93
2023/08/06 14:15:16;;;;;;;1.13;0.63;;;;;;;;;;5115699;28;20233;-93
2023/08/06 14:17:43;;;;;;;2.67;0.90;;;;;;;;;;5133307;27;20235;-92
2023/08/06 14:20:11;;;;;;;1.58;0.60;;;;;;;;;;5135682;27;20217;-94
2023/08/06 14:22:39;;;;;;;1.83;0.80;;;;;;;;;;5136381;27;20215;-93
2023/08/06 14:25:06;;;;;;;1.50;0.60;;;;;;;;;;5135935;27;20276;-93
2023/08/06 14:27:35;;;;;;;2.78;0.77;;;;;;;;;;5136086;27;20217;-93
2023/08/06 14:30:03;;;;;;;2.00;0.70;;;;;;;;;;5135881;27;20189;-93
2023/08/06 14:32:30;;;;;;;1.60;0.98;;;;;;;;;;5136456;27;20309;-93
2023/08/06 14:34:58;;;;;;;1.92;0.80;;;;;;;;;;5135945;27;20639;-93
2023/08/06 14:37:26;;;;;;;1.95;0.70;;;;;;;;;;5136087;27;20229;-94
2023/08/06 14:39:53;;;;;;;1.58;0.70;;;;;;;;;;5135671;27;20240;-93
2023/08/06 14:42:21;;;;;;;1.05;0.55;;;;;;;;;;5135702;27;20246;-93
2023/08/06 14:44:50;;;;;;;1.85;0.60;;;;;;;;;;5135785;27;20284;-94